createdAt,value
2023-07-08T00:00:52.202Z,21.59
2023-07-08T00:05:56.886Z,21.45
2023-07-08T00:10:58.726Z,21.45
2023-07-08T00:16:00.776Z,21.39
2023-07-08T00:21:02.585Z,21.27
2023-07-08T00:26:27.862Z,21.27
2023-07-08T00:31:29.536Z,21.39
2023-07-08T00:36:32.105Z,21.55
2023-07-08T00:41:38.553Z,21.60
2023-07-08T00:47:06.392Z,21.64
2023-07-08T00:52:29.056Z,21.54
2023-07-08T00:57:35.854Z,21.45
2023-07-08T01:02:43.363Z,21.37
2023-07-08T01:07:50.042Z,21.26
2023-07-08T01:12:54.905Z,21.18
2023-07-08T01:17:56.843Z,21.16
2023-07-08T01:22:58.588Z,21.03
2023-07-08T01:28:00.645Z,20.92
2023-07-08T01:33:08.352Z,20.94
2023-07-08T01:38:13.397Z,20.94
2023-07-08T01:43:15.116Z,21.15
2023-07-08T01:48:21.691Z,21.23
2023-07-08T01:53:30.737Z,21.15
2023-07-08T01:58:32.331Z,21.21
2023-07-08T02:03:34.245Z,21.05
2023-07-08T02:08:35.794Z,20.82
2023-07-08T02:13:37.755Z,20.52
2023-07-08T02:18:39.412Z,20.48
2023-07-08T02:23:41.087Z,20.59
2023-07-08T02:28:42.838Z,20.35
2023-07-08T02:33:44.433Z,20.17
2023-07-08T02:38:47.118Z,19.96
2023-07-08T02:43:48.700Z,19.93
2023-07-08T02:48:50.399Z,20.00
2023-07-08T02:53:52.110Z,20.04
2023-07-08T02:58:54.417Z,19.87
2023-07-08T03:03:56.143Z,19.57
2023-07-08T03:08:57.940Z,19.31
2023-07-08T03:13:59.706Z,19.16
2023-07-08T03:19:01.878Z,19.12
2023-07-08T03:24:04.637Z,19.06
2023-07-08T03:29:16.334Z,18.97
2023-07-08T03:34:19.358Z,18.93
2023-07-08T03:39:23.727Z,19.01
2023-07-08T03:44:25.528Z,19.13
2023-07-08T03:49:27.168Z,19.45
2023-07-08T03:54:30.785Z,19.71
2023-07-08T03:59:33.771Z,19.75
2023-07-08T04:04:35.759Z,19.80
2023-07-08T04:09:38.476Z,19.61
2023-07-08T04:14:40.149Z,19.62
2023-07-08T04:19:41.707Z,19.73
2023-07-08T04:24:43.605Z,19.72
2023-07-08T04:29:45.324Z,19.78
2023-07-08T04:34:47.137Z,19.90
2023-07-08T04:39:49.032Z,20.19
2023-07-08T04:44:50.848Z,20.40
2023-07-08T04:49:52.480Z,20.59
2023-07-08T04:54:54.163Z,20.83
2023-07-08T04:59:55.742Z,20.97
2023-07-08T05:05:00.382Z,21.18
2023-07-08T05:10:01.994Z,21.53
2023-07-08T05:15:05.692Z,21.65
2023-07-08T05:20:09.879Z,22.79
2023-07-08T05:25:13.315Z,23.61
2023-07-08T05:30:18.154Z,24.18
2023-07-08T05:35:19.920Z,24.20
2023-07-08T05:40:21.706Z,24.83
2023-07-08T05:45:23.312Z,24.18
2023-07-08T05:50:24.941Z,23.83
2023-07-08T05:55:26.888Z,23.03
2023-07-08T06:00:38.468Z,23.06
2023-07-08T06:05:41.146Z,25.05
2023-07-08T06:10:45.186Z,26.07
2023-07-08T06:15:48.024Z,26.40
2023-07-08T06:20:58.356Z,26.63
2023-07-08T06:26:00.111Z,26.52
2023-07-08T06:31:01.990Z,26.32
2023-07-08T06:36:03.962Z,26.31
2023-07-08T06:41:05.567Z,27.69
2023-07-08T06:46:07.163Z,28.13
2023-07-08T06:51:08.747Z,28.17
2023-07-08T06:56:10.300Z,27.62
2023-07-08T07:01:12.010Z,27.82
2023-07-08T07:06:13.752Z,28.72
2023-07-08T07:11:15.728Z,29.86
2023-07-08T07:16:17.393Z,27.27
2023-07-08T07:21:19.323Z,27.47
2023-07-08T07:26:22.968Z,27.39
2023-07-08T07:31:26.045Z,28.56
2023-07-08T07:36:27.739Z,30.64
2023-07-08T07:41:29.387Z,30.19
2023-07-08T07:46:30.989Z,31.35
2023-07-08T07:51:32.646Z,32.63
2023-07-08T07:56:34.243Z,32.69
2023-07-08T08:01:35.805Z,31.76
2023-07-08T08:06:37.865Z,31.55
2023-07-08T08:11:39.545Z,32.50
2023-07-08T08:16:41.164Z,31.40
2023-07-08T08:21:43.323Z,33.02
2023-07-08T08:26:45.322Z,34.61
2023-07-08T08:31:47.280Z,33.99
2023-07-08T08:36:49.091Z,34.49
2023-07-08T08:41:51.516Z,35.60
2023-07-08T08:46:59.194Z,34.77
2023-07-08T08:52:01.075Z,35.12
2023-07-08T08:57:24.509Z,33.12
2023-07-08T09:02:39.891Z,35.26
2023-07-08T09:07:48.233Z,34.09
2023-07-08T09:12:54.258Z,35.85
2023-07-08T09:18:01.059Z,34.62
2023-07-08T09:23:26.361Z,35.12
2023-07-08T09:28:43.122Z,36.06
2023-07-08T09:33:44.722Z,35.53
2023-07-08T09:38:49.903Z,36.29
2023-07-08T09:43:51.564Z,36.35
2023-07-08T09:48:53.171Z,36.48
2023-07-08T09:53:54.730Z,35.14
2023-07-08T09:58:56.599Z,36.68
2023-07-08T10:04:02.289Z,34.85
2023-07-08T10:09:14.016Z,37.43
2023-07-08T10:14:39.799Z,35.69
2023-07-08T10:19:43.776Z,36.18
2023-07-08T10:25:18.322Z,36.79
2023-07-08T10:30:26.343Z,37.75
2023-07-08T10:35:31.407Z,39.23
2023-07-08T10:40:38.892Z,39.41
2023-07-08T10:45:47.328Z,38.33
2023-07-08T10:51:10.661Z,39.80
2023-07-08T10:56:19.141Z,39.88
2023-07-08T11:01:31.899Z,37.39
2023-07-08T11:06:51.850Z,39.06
2023-07-08T11:12:02.845Z,40.11
2023-07-08T11:17:10.199Z,40.23
2023-07-08T11:22:14.990Z,39.55
2023-07-08T11:27:41.822Z,38.15
2023-07-08T11:32:46.676Z,39.14
2023-07-08T11:37:48.829Z,39.75
2023-07-08T11:43:01.169Z,39.46
2023-07-08T11:48:07.809Z,40.82
2023-07-08T11:53:12.609Z,38.95
2023-07-08T11:58:22.421Z,38.16
2023-07-08T12:03:35.108Z,38.65
2023-07-08T12:08:42.965Z,40.50
2023-07-08T12:13:44.781Z,39.50
2023-07-08T12:18:48.799Z,40.20
2023-07-08T12:23:50.371Z,41.54
2023-07-08T12:28:53.035Z,41.69
2023-07-08T12:33:55.604Z,41.03
2023-07-08T12:39:00.614Z,39.94
2023-07-08T12:44:03.079Z,41.93
2023-07-08T12:49:04.699Z,40.97
2023-07-08T12:54:06.293Z,40.87
2023-07-08T12:59:07.972Z,39.98
2023-07-08T13:04:12.905Z,40.74
2023-07-08T13:09:32.694Z,39.97
2023-07-08T13:14:34.750Z,41.07
2023-07-08T13:19:36.361Z,39.95
2023-07-08T13:24:38.202Z,41.47
2023-07-08T13:29:40.095Z,40.75
2023-07-08T13:34:41.973Z,39.47
2023-07-08T13:39:47.352Z,40.33
2023-07-08T13:44:50.178Z,40.82
2023-07-08T13:50:05.720Z,41.06
2023-07-08T13:55:20.062Z,41.75
2023-07-08T14:00:22.559Z,41.41
2023-07-08T14:05:24.278Z,40.66
2023-07-08T14:10:26.078Z,41.37
2023-07-08T14:15:27.698Z,40.80
2023-07-08T14:20:30.373Z,40.04
2023-07-08T14:25:32.119Z,39.77
2023-07-08T14:30:38.351Z,41.25
2023-07-08T14:35:42.196Z,40.57
2023-07-08T14:40:43.885Z,38.91
2023-07-08T14:45:50.440Z,39.94
2023-07-08T14:50:52.235Z,41.69
2023-07-08T14:55:56.728Z,41.78
2023-07-08T15:01:01.240Z,41.79
2023-07-08T15:06:03.247Z,38.78
2023-07-08T15:11:05.912Z,38.68
2023-07-08T15:16:15.954Z,37.31
2023-07-08T15:21:17.616Z,37.25
2023-07-08T15:26:19.378Z,37.68
2023-07-08T15:31:24.779Z,37.87
2023-07-08T15:36:26.571Z,37.43
2023-07-08T15:41:28.416Z,37.75
2023-07-08T15:46:36.577Z,37.74
2023-07-08T15:51:38.531Z,37.50
2023-07-08T15:56:41.420Z,37.48
2023-07-08T16:01:43.743Z,37.31
2023-07-08T16:06:45.350Z,37.35
2023-07-08T16:11:47.237Z,36.59
2023-07-08T16:16:49.016Z,36.09
2023-07-08T16:21:50.655Z,36.14
2023-07-08T16:26:52.278Z,35.75
2023-07-08T16:31:54.056Z,35.94
2023-07-08T16:36:55.666Z,35.74
2023-07-08T16:41:57.483Z,28.58
2023-07-08T16:46:59.363Z,24.29
2023-07-08T16:52:01.273Z,25.68
2023-07-08T16:57:02.976Z,26.11
2023-07-08T17:02:15.850Z,24.02
2023-07-08T17:07:17.618Z,22.60
2023-07-08T17:12:19.210Z,22.22
2023-07-08T17:17:20.904Z,21.53
2023-07-08T17:22:22.567Z,21.67
2023-07-08T17:27:24.547Z,22.80
2023-07-08T17:32:26.401Z,24.22
2023-07-08T17:37:28.189Z,23.47
2023-07-08T17:42:29.751Z,23.69
2023-07-08T17:47:31.461Z,23.98
2023-07-08T17:52:33.191Z,24.01
2023-07-08T17:57:35.828Z,24.68
2023-07-08T18:02:37.514Z,25.07
2023-07-08T18:07:39.226Z,25.30
2023-07-08T18:12:41.659Z,25.36
2023-07-08T18:17:43.509Z,25.54
2023-07-08T18:22:48.584Z,25.72
2023-07-08T18:27:50.797Z,25.92
2023-07-08T18:32:53.114Z,25.55
2023-07-08T18:37:55.970Z,25.55
2023-07-08T18:43:06.998Z,25.61
2023-07-08T18:48:13.785Z,25.59
2023-07-08T18:53:17.882Z,25.35
2023-07-08T18:58:23.443Z,25.15
2023-07-08T19:03:28.761Z,25.03
2023-07-08T19:08:30.536Z,24.67
2023-07-08T19:13:32.145Z,24.64
2023-07-08T19:18:33.827Z,24.60
2023-07-08T19:23:35.707Z,24.47
2023-07-08T19:28:37.379Z,24.27
2023-07-08T19:33:39.183Z,24.11
2023-07-08T19:38:40.964Z,24.42
2023-07-08T19:43:43.064Z,24.36
2023-07-08T19:48:44.880Z,24.02
2023-07-08T19:53:46.719Z,23.79
2023-07-08T19:58:48.826Z,23.55
2023-07-08T20:03:50.668Z,23.50
2023-07-08T20:08:52.678Z,23.43
2023-07-08T20:13:54.716Z,23.52
2023-07-08T20:18:56.409Z,23.67
2023-07-08T20:23:58.003Z,23.71
2023-07-08T20:29:00.109Z,23.72
2023-07-08T20:34:01.694Z,23.68
2023-07-08T20:39:04.283Z,23.77
2023-07-08T20:44:05.881Z,23.58
2023-07-08T20:49:10.801Z,23.44
2023-07-08T20:54:15.634Z,23.20
2023-07-08T20:59:19.289Z,23.34
2023-07-08T21:04:21.379Z,23.51
2023-07-08T21:09:22.977Z,23.44
2023-07-08T21:14:24.658Z,23.59
2023-07-08T21:19:26.221Z,23.64
2023-07-08T21:24:30.861Z,23.74
2023-07-08T21:29:32.826Z,23.85
2023-07-08T21:34:34.394Z,23.66
2023-07-08T21:39:36.104Z,23.59
2023-07-08T21:44:37.776Z,23.58
2023-07-08T21:49:39.392Z,23.61
2023-07-08T21:54:40.943Z,23.37
2023-07-08T21:59:42.511Z,23.22
2023-07-08T22:04:44.253Z,23.17
2023-07-08T22:09:45.891Z,23.28
2023-07-08T22:14:47.484Z,23.47
2023-07-08T22:19:49.087Z,23.44
2023-07-08T22:24:50.901Z,23.44
2023-07-08T22:29:52.531Z,23.31
2023-07-08T22:34:54.140Z,23.30
2023-07-08T22:39:55.935Z,23.43
2023-07-08T22:44:57.675Z,23.45
2023-07-08T22:49:59.247Z,23.30
2023-07-08T22:55:04.164Z,22.99
2023-07-08T23:00:06.780Z,22.79
2023-07-08T23:05:08.618Z,22.72
2023-07-08T23:10:14.542Z,22.56
2023-07-08T23:15:16.174Z,22.53
2023-07-08T23:20:20.964Z,22.54
2023-07-08T23:25:22.814Z,22.56
2023-07-08T23:30:24.516Z,22.62
2023-07-08T23:35:26.188Z,22.47
2023-07-08T23:40:27.910Z,22.27
2023-07-08T23:45:29.605Z,22.11
2023-07-08T23:50:31.225Z,21.99
2023-07-08T23:55:32.825Z,21.91
